Time;durP1;ratioP1;P1;durP2;ratioP2;P2;SDS_P1;SDS_P2;PMS_P1;PMS_P2;Temp;Humidity;BMP_temperature;BMP_pressure;BME280_temperature;BME280_humidity;BME280_pressure;Samples;Min_cycle;Max_cycle;Signal;HPM_P1;HPM_P2
2022/12/01 00:01:52;;;;;;;6.97;3.10;;;;;;;;;;21002924;28;20446;-59
2022/12/01 00:11:54;;;;;;;8.85;3.30;;;;;;;;;;21000742;28;20056;-60
2022/12/01 00:21:57;;;;;;;6.07;2.67;;;;;;;;;;21000124;28;20505;-61
2022/12/01 00:31:59;;;;;;;8.93;3.05;;;;;;;;;;20996615;28;20060;-61
2022/12/01 00:42:01;;;;;;;7.97;3.55;;;;;;;;;;20996207;28;20048;-61
2022/12/01 00:52:03;;;;;;;7.03;3.38;;;;;;;;;;20977097;28;20044;-60
2022/12/01 01:02:06;;;;;;;6.25;2.90;;;;;;;;;;20994551;28;20051;-60
2022/12/01 01:12:08;;;;;;;7.40;3.30;;;;;;;;;;20993769;28;20045;-60
2022/12/01 01:22:10;;;;;;;5.75;3.28;;;;;;;;;;20993628;28;20045;-62
2022/12/01 01:32:12;;;;;;;7.57;3.05;;;;;;;;;;20952906;28;1188101;-60
2022/12/01 01:42:18;;;;;;;7.10;3.05;;;;;;;;;;20995899;28;20430;-60
2022/12/01 01:52:20;;;;;;;6.15;2.78;;;;;;;;;;20995725;28;20049;-61
2022/12/01 02:02:24;;;;;;;10.25;4.32;;;;;;;;;;20994725;28;20048;-60
2022/12/01 02:12:50;;;;;;;5.97;2.88;;;;;;;;;;21009242;28;20059;-60
2022/12/01 02:23:11;;;;;;;7.25;3.42;;;;;;;;;;21009221;28;20052;-60
2022/12/01 02:33:19;;;;;;;7.47;3.95;;;;;;;;;;21008041;28;20057;-60
2022/12/01 02:43:44;;;;;;;8.18;3.85;;;;;;;;;;21008862;28;20048;-61
2022/12/01 02:53:51;;;;;;;8.85;3.92;;;;;;;;;;21007663;28;20087;-59
2022/12/01 03:03:58;;;;;;;9.02;4.03;;;;;;;;;;21006479;28;20470;-60
2022/12/01 03:14:28;;;;;;;8.60;3.50;;;;;;;;;;20988299;28;20412;-60
2022/12/01 03:24:34;;;;;;;7.63;4.15;;;;;;;;;;21004833;28;20087;-60
2022/12/01 03:34:48;;;;;;;8.70;4.25;;;;;;;;;;21003508;28;20102;-61
2022/12/01 03:44:54;;;;;;;7.40;3.25;;;;;;;;;;21003540;28;20060;-62
2022/12/01 03:55:06;;;;;;;8.48;4.00;;;;;;;;;;21003293;28;20051;-61
2022/12/01 04:05:08;;;;;;;6.97;2.95;;;;;;;;;;21002226;28;20045;-60
2022/12/01 04:15:11;;;;;;;7.82;3.92;;;;;;;;;;21001671;28;20558;-60
2022/12/01 04:25:12;;;;;;;10.65;4.07;;;;;;;;;;21000473;28;20075;-60
2022/12/01 04:35:13;;;;;;;7.25;3.08;;;;;;;;;;20998316;28;20106;-61
2022/12/01 04:45:14;;;;;;;7.57;4.05;;;;;;;;;;20998675;28;20068;-60
2022/12/01 04:55:31;;;;;;;5.22;3.22;;;;;;;;;;20997401;28;20059;-59
2022/12/01 05:05:33;;;;;;;9.15;3.35;;;;;;;;;;20997099;28;20087;-60
2022/12/01 05:15:34;;;;;;;12.20;3.28;;;;;;;;;;20996777;28;20136;-60
2022/12/01 05:25:36;;;;;;;5.97;3.40;;;;;;;;;;20996513;28;20493;-59
2022/12/01 05:35:38;;;;;;;6.78;3.08;;;;;;;;;;20996100;28;20420;-61
2022/12/01 05:45:40;;;;;;;12.60;3.70;;;;;;;;;;21008707;28;20079;-60
2022/12/01 05:55:41;;;;;;;7.72;2.83;;;;;;;;;;21011738;28;20071;-64
2022/12/01 06:05:43;;;;;;;8.73;3.13;;;;;;;;;;21010678;28;20084;-59
2022/12/01 06:15:45;;;;;;;5.13;3.20;;;;;;;;;;21010112;28;20418;-59
2022/12/01 06:25:46;;;;;;;6.57;2.70;;;;;;;;;;21008794;28;20467;-60
2022/12/01 06:36:09;;;;;;;8.27;3.33;;;;;;;;;;21009355;28;20052;-59
2022/12/01 06:46:30;;;;;;;6.82;2.58;;;;;;;;;;21008044;28;20055;-59
2022/12/01 06:56:52;;;;;;;5.28;3.05;;;;;;;;;;21007885;28;20056;-61
2022/12/01 07:07:13;;;;;;;7.13;2.58;;;;;;;;;;21005586;28;20052;-60
2022/12/01 07:17:35;;;;;;;3.75;1.65;;;;;;;;;;21005767;28;20044;-60
2022/12/01 07:27:48;;;;;;;6.15;2.75;;;;;;;;;;21004802;28;20524;-60
2022/12/01 07:37:55;;;;;;;2.47;1.00;;;;;;;;;;21003893;28;20052;-61
2022/12/01 07:48:01;;;;;;;5.77;1.23;;;;;;;;;;21002553;28;20053;-60
2022/12/01 07:58:05;;;;;;;5.97;2.78;;;;;;;;;;21002017;28;20366;-61
2022/12/01 08:08:07;;;;;;;3.75;1.10;;;;;;;;;;21000338;28;20055;-61
2022/12/01 08:18:10;;;;;;;2.47;1.27;;;;;;;;;;21000253;28;20041;-61
2022/12/01 08:28:12;;;;;;;6.43;1.42;;;;;;;;;;21000669;28;20567;-61
2022/12/01 08:38:14;;;;;;;3.28;1.60;;;;;;;;;;20998416;28;20080;-60
2022/12/01 08:48:16;;;;;;;3.60;1.40;;;;;;;;;;20998700;28;20053;-60
2022/12/01 08:58:18;;;;;;;4.03;1.23;;;;;;;;;;20998447;28;20045;-63
2022/12/01 09:08:33;;;;;;;3.90;1.17;;;;;;;;;;20996615;28;20048;-61
2022/12/01 09:18:34;;;;;;;2.70;1.20;;;;;;;;;;20996739;28;20044;-60
2022/12/01 09:28:36;;;;;;;6.95;2.95;;;;;;;;;;20995928;28;20095;-59
2022/12/01 09:38:38;;;;;;;2.58;1.50;;;;;;;;;;20995211;28;20052;-60
2022/12/01 09:48:45;;;;;;;5.95;2.13;;;;;;;;;;20995194;28;20052;-59
2022/12/01 09:58:50;;;;;;;2.92;1.77;;;;;;;;;;20994751;28;20467;-58
2022/12/01 10:09:00;;;;;;;7.38;1.98;;;;;;;;;;20994949;28;20083;-60
2022/12/01 10:19:03;;;;;;;3.40;1.35;;;;;;;;;;20994310;28;20067;-60
2022/12/01 10:29:13;;;;;;;3.10;1.33;;;;;;;;;;21001827;28;20064;-69
2022/12/01 10:39:17;;;;;;;6.00;1.20;;;;;;;;;;21009430;28;20055;-62
2022/12/01 10:49:19;;;;;;;6.45;1.30;;;;;;;;;;21008214;28;20080;-63
2022/12/01 10:59:26;;;;;;;3.70;1.30;;;;;;;;;;21008148;28;20072;-62
2022/12/01 11:09:30;;;;;;;4.50;1.10;;;;;;;;;;20934475;28;20049;-66
2022/12/01 11:19:33;;;;;;;4.22;1.42;;;;;;;;;;20923343;28;20535;-62
2022/12/01 11:29:36;;;;;;;3.75;1.38;;;;;;;;;;20921373;28;20075;-63
2022/12/01 11:39:43;;;;;;;6.40;1.02;;;;;;;;;;20921277;28;20426;-64
2022/12/01 11:49:47;;;;;;;2.53;0.90;;;;;;;;;;20918788;28;20167;-63
2022/12/01 11:59:50;;;;;;;2.83;1.02;;;;;;;;;;20919457;28;20053;-69
2022/12/01 12:10:02;;;;;;;2.28;0.80;;;;;;;;;;20917683;28;20080;-70
2022/12/01 12:20:23;;;;;;;0.98;0.57;;;;;;;;;;20919803;28;20045;-71
2022/12/01 12:30:37;;;;;;;4.28;0.68;;;;;;;;;;20918183;28;20120;-62
2022/12/01 12:40:42;;;;;;;1.88;0.50;;;;;;;;;;20917320;28;20045;-60
2022/12/01 12:50:52;;;;;;;2.67;0.65;;;;;;;;;;20918209;28;20488;-60
2022/12/01 13:00:58;;;;;;;2.85;0.73;;;;;;;;;;20919538;28;20108;-60
2022/12/01 13:11:07;;;;;;;0.93;0.30;;;;;;;;;;20924210;28;20413;-61
2022/12/01 13:21:12;;;;;;;0.82;0.40;;;;;;;;;;20913518;28;20049;-60
2022/12/01 13:31:16;;;;;;;1.20;0.43;;;;;;;;;;20912661;28;20107;-60
2022/12/01 13:41:17;;;;;;;3.13;0.40;;;;;;;;;;20912442;28;20132;-60
2022/12/01 13:51:20;;;;;;;5.18;2.75;;;;;;;;;;20912937;28;20084;-59
2022/12/01 14:01:22;;;;;;;1.60;0.47;;;;;;;;;;20916714;28;20053;-59
2022/12/01 14:11:25;;;;;;;1.25;0.60;;;;;;;;;;20928862;28;20088;-60
2022/12/01 14:21:41;;;;;;;8.35;0.93;;;;;;;;;;20928288;28;20051;-61
2022/12/01 14:31:45;;;;;;;1.35;0.28;;;;;;;;;;20926564;28;20350;-59
2022/12/01 14:41:52;;;;;;;2.00;0.38;;;;;;;;;;20925798;28;20051;-60
2022/12/01 14:51:58;;;;;;;1.08;0.35;;;;;;;;;;20925474;28;20056;-60
2022/12/01 15:02:07;;;;;;;2.15;0.47;;;;;;;;;;20925075;28;20420;-61
2022/12/01 15:12:26;;;;;;;0.50;0.20;;;;;;;;;;20922767;28;20053;-60
2022/12/01 15:22:32;;;;;;;1.70;0.90;;;;;;;;;;20921976;28;20075;-59
2022/12/01 15:32:37;;;;;;;1.60;0.80;;;;;;;;;;20921134;28;20059;-60
2022/12/01 15:42:39;;;;;;;1.65;0.50;;;;;;;;;;20922178;28;20473;-60
2022/12/01 15:52:44;;;;;;;2.17;0.60;;;;;;;;;;20920168;28;20476;-60
2022/12/01 16:02:49;;;;;;;0.50;0.30;;;;;;;;;;20920285;28;20049;-60
2022/12/01 16:12:51;;;;;;;3.60;0.60;;;;;;;;;;20919161;28;20052;-60
2022/12/01 16:22:58;;;;;;;2.70;0.55;;;;;;;;;;20917444;28;20049;-59
2022/12/01 16:33:01;;;;;;;1.58;0.40;;;;;;;;;;20916826;28;20061;-60
2022/12/01 16:43:03;;;;;;;2.00;0.68;;;;;;;;;;20916851;28;20052;-60
2022/12/01 16:53:05;;;;;;;1.60;0.50;;;;;;;;;;20916393;28;20459;-59
2022/12/01 17:03:10;;;;;;;1.42;0.55;;;;;;;;;;20914390;28;20041;-60
2022/12/01 17:13:13;;;;;;;2.80;0.85;;;;;;;;;;20914398;28;20386;-60
2022/12/01 17:23:14;;;;;;;1.45;0.80;;;;;;;;;;20913265;28;20417;-59
2022/12/01 17:33:16;;;;;;;3.00;0.80;;;;;;;;;;20912859;28;20053;-61
2022/12/01 17:43:19;;;;;;;2.25;0.95;;;;;;;;;;20911919;28;20052;-61
2022/12/01 17:53:21;;;;;;;2.63;1.00;;;;;;;;;;20911419;28;20057;-60
2022/12/01 18:03:24;;;;;;;1.60;0.65;;;;;;;;;;20911454;28;20135;-60
2022/12/01 18:13:26;;;;;;;6.38;1.70;;;;;;;;;;20911567;28;20077;-60
2022/12/01 18:23:29;;;;;;;2.42;1.38;;;;;;;;;;20912417;28;20048;-61
2022/12/01 18:33:35;;;;;;;2.50;0.80;;;;;;;;;;20909934;28;20069;-61
2022/12/01 18:43:37;;;;;;;2.15;0.88;;;;;;;;;;20909891;28;20068;-61
2022/12/01 18:53:39;;;;;;;3.40;1.05;;;;;;;;;;20923633;28;20052;-60
2022/12/01 19:03:40;;;;;;;2.40;1.10;;;;;;;;;;20923347;28;20049;-60
2022/12/01 19:13:43;;;;;;;3.40;0.90;;;;;;;;;;20922752;28;20087;-61
2022/12/01 19:23:45;;;;;;;4.43;1.33;;;;;;;;;;20922630;28;20045;-60
2022/12/01 19:33:47;;;;;;;4.75;1.30;;;;;;;;;;20921236;28;20409;-60
2022/12/01 19:43:49;;;;;;;10.15;3.28;;;;;;;;;;20921002;28;20499;-60
2022/12/01 19:53:52;;;;;;;5.45;2.40;;;;;;;;;;20920686;28;20519;-61
2022/12/01 20:03:54;;;;;;;3.08;1.08;;;;;;;;;;20919067;28;20102;-59
2022/12/01 20:13:57;;;;;;;2.13;1.23;;;;;;;;;;20918403;28;20053;-61
2022/12/01 20:24:00;;;;;;;2.92;1.20;;;;;;;;;;20918147;28;20496;-61
2022/12/01 20:34:04;;;;;;;3.22;0.90;;;;;;;;;;20916389;28;20104;-61
2022/12/01 20:44:07;;;;;;;3.08;0.80;;;;;;;;;;20916411;28;20457;-61
2022/12/01 20:54:10;;;;;;;2.55;0.98;;;;;;;;;;20916010;28;20048;-61
2022/12/01 21:04:13;;;;;;;5.40;2.47;;;;;;;;;;20914549;28;20405;-60
2022/12/01 21:14:28;;;;;;;4.72;1.67;;;;;;;;;;20913604;28;20122;-60
2022/12/01 21:24:30;;;;;;;15.57;6.90;;;;;;;;;;20912888;28;20052;-59
2022/12/01 21:34:34;;;;;;;1.70;1.20;;;;;;;;;;20912551;28;20412;-59
2022/12/01 21:44:38;;;;;;;2.72;0.93;;;;;;;;;;20912481;28;20053;-60
2022/12/01 21:54:40;;;;;;;4.70;1.20;;;;;;;;;;20912477;28;20481;-60
2022/12/01 22:04:42;;;;;;;1.67;0.80;;;;;;;;;;20912323;28;20053;-60
2022/12/01 22:14:44;;;;;;;2.40;0.90;;;;;;;;;;20911459;28;20053;-61
2022/12/01 22:24:47;;;;;;;7.20;0.80;;;;;;;;;;20918883;28;20045;-60
2022/12/01 22:34:54;;;;;;;2.00;0.68;;;;;;;;;;20908571;28;20481;-60
2022/12/01 22:44:57;;;;;;;1.75;0.73;;;;;;;;;;20926210;28;20048;-59
2022/12/01 22:54:59;;;;;;;2.22;0.90;;;;;;;;;;20924877;28;20409;-60
2022/12/01 23:05:14;;;;;;;1.83;0.80;;;;;;;;;;20924759;28;20412;-61
2022/12/01 23:15:16;;;;;;;1.42;0.68;;;;;;;;;;20924218;28;20056;-60
2022/12/01 23:25:19;;;;;;;4.57;1.63;;;;;;;;;;20922763;28;20408;-61
2022/12/01 23:35:21;;;;;;;6.93;0.80;;;;;;;;;;20921433;28;20118;-60
2022/12/01 23:45:25;;;;;;;1.27;0.70;;;;;;;;;;20921157;28;20052;-60
2022/12/01 23:55:28;;;;;;;1.50;0.70;;;;;;;;;;20920174;28;20077;-60
